Time;durP1;ratioP1;P1;durP2;ratioP2;P2;SDS_P1;SDS_P2;PMS_P1;PMS_P2;Temp;Humidity;BMP_temperature;BMP_pressure;BME280_temperature;BME280_humidity;BME280_pressure;Samples;Min_cycle;Max_cycle;Signal;HPM_P1;HPM_P2
2023/10/08 06:42:20;;;;;;;11.75;4.63;;;;;;;13.41;75.34;97408.19;2100493;27;20592;-62
2023/10/08 06:44:32;;;;;;;14.80;5.55;;;;;;;13.94;73.76;97411.97;2083768;28;21102;-62
2023/10/08 06:45:36;;;;;;;10.10;4.10;;;;;;;14.34;72.64;97417.97;2083118;28;20203;-63
2023/10/08 06:46:39;;;;;;;9.57;4.18;;;;;;;14.77;72.13;97413.31;2083415;28;20247;-63
2023/10/08 06:47:41;;;;;;;16.52;5.00;;;;;;;14.99;70.66;97412.22;2081115;28;20253;-63
2023/10/08 06:48:42;;;;;;;12.90;4.85;;;;;;;14.86;70.80;97415.47;2080766;28;20193;-63
2023/10/08 06:49:44;;;;;;;8.77;4.10;;;;;;;15.09;70.19;97421.34;2082810;28;20216;-63
2023/10/08 06:50:47;;;;;;;10.50;4.18;;;;;;;15.10;70.10;97422.22;2083254;28;20223;-63
2023/10/08 06:51:51;;;;;;;9.95;3.92;;;;;;;15.17;69.78;97418.31;2081197;28;20746;-63
2023/10/08 06:52:54;;;;;;;10.02;4.00;;;;;;;15.55;68.95;97420.75;2081287;28;20242;-63
2023/10/08 06:53:55;;;;;;;12.38;4.15;;;;;;;15.94;67.91;97427.50;2081848;28;20193;-63
2023/10/08 06:54:57;;;;;;;7.53;3.88;;;;;;;15.89;67.57;97426.91;2082206;28;20248;-64
2023/10/08 06:56:03;;;;;;;12.07;4.18;;;;;;;15.87;67.35;97426.16;2082477;28;20864;-64
2023/10/08 06:57:13;;;;;;;9.70;3.80;;;;;;;16.04;67.11;97425.22;2081246;28;20197;-64
2023/10/08 06:58:15;;;;;;;15.80;3.95;;;;;;;16.43;66.06;97423.97;2081347;28;20207;-64
2023/10/08 06:59:22;;;;;;;10.35;4.60;;;;;;;16.78;64.84;97415.81;2082737;28;20229;-64
2023/10/08 07:00:38;;;;;;;10.05;4.50;;;;;;;16.78;64.86;97413.19;2080883;28;20212;-64
2023/10/08 07:01:41;;;;;;;9.45;4.00;;;;;;;16.57;65.70;97415.28;2086312;28;20235;-65
2023/10/08 07:02:42;;;;;;;12.68;4.07;;;;;;;16.62;65.63;97425.53;2086152;28;20199;-64
2023/10/08 07:03:46;;;;;;;10.73;4.22;;;;;;;16.68;65.69;97419.91;2078552;28;20193;-65
2023/10/08 07:04:50;;;;;;;10.93;4.20;;;;;;;16.76;65.40;97414.22;2078644;28;20221;-65
2023/10/08 07:05:54;;;;;;;9.18;4.05;;;;;;;17.20;64.68;97413.44;2082763;28;20201;-65
2023/10/08 07:06:56;;;;;;;16.40;3.80;;;;;;;17.33;64.08;97410.94;2082620;28;20292;-65
2023/10/08 07:07:57;;;;;;;6.63;3.45;;;;;;;17.51;63.75;97405.47;2083009;28;20555;-65
2023/10/08 07:09:04;;;;;;;9.75;4.00;;;;;;;17.90;62.61;97415.38;2082511;28;20270;-64
2023/10/08 07:10:10;;;;;;;11.25;4.43;;;;;;;18.40;60.17;97412.31;2078411;28;20621;-64
2023/10/08 07:11:13;;;;;;;18.15;4.32;;;;;;;18.76;59.51;97416.97;2081421;28;20236;-64
2023/10/08 07:12:14;;;;;;;8.95;4.10;;;;;;;19.03;59.58;97415.28;2080896;28;20198;-64
2023/10/08 07:13:17;;;;;;;15.77;5.22;;;;;;;19.07;58.99;97414.13;2081018;28;20204;-64
2023/10/08 07:14:18;;;;;;;13.63;4.05;;;;;;;19.33;59.52;97422.97;2080830;28;20260;-64
2023/10/08 07:15:23;;;;;;;8.32;4.00;;;;;;;19.57;59.14;97415.16;2081478;28;20201;-64
2023/10/08 07:16:28;;;;;;;6.47;3.35;;;;;;;19.37;59.47;97418.31;2078615;28;20258;-64
2023/10/08 07:17:40;;;;;;;11.65;5.50;;;;;;;19.39;59.42;97417.25;2082753;28;20279;-64
2023/10/08 07:18:45;;;;;;;9.57;4.55;;;;;;;19.25;59.92;97423.50;2082128;28;20204;-64
2023/10/08 07:19:50;;;;;;;11.30;4.30;;;;;;;19.36;59.69;97422.78;2082250;28;20225;-63
2023/10/08 07:20:54;;;;;;;11.82;4.65;;;;;;;19.81;58.90;97434.75;2082505;28;20201;-64
2023/10/08 07:22:03;;;;;;;11.93;4.40;;;;;;;20.18;58.19;97421.59;2082102;28;20204;-63
2023/10/08 07:23:24;;;;;;;12.63;5.00;;;;;;;20.37;56.38;97423.75;2082055;28;20456;-63
2023/10/08 07:24:30;;;;;;;12.02;5.32;;;;;;;20.28;55.93;97435.88;2080998;28;20550;-64
2023/10/08 07:25:37;;;;;;;13.10;4.20;;;;;;;20.02;57.36;97440.38;2081139;28;20227;-63
2023/10/08 07:26:46;;;;;;;10.85;4.72;;;;;;;19.67;58.67;97441.84;2078451;28;20223;-63
2023/10/08 07:27:48;;;;;;;11.75;5.10;;;;;;;19.54;59.35;97446.28;2080170;28;20292;-63
2023/10/08 07:28:53;;;;;;;10.80;4.93;;;;;;;19.15;60.26;97448.06;2080442;28;20208;-63
2023/10/08 07:29:55;;;;;;;9.55;3.70;;;;;;;19.23;60.33;97454.50;2080011;28;20273;-63
2023/10/08 07:30:58;;;;;;;8.35;4.45;;;;;;;18.59;62.18;97452.47;2082526;28;20845;-63
2023/10/08 07:32:09;;;;;;;10.00;4.03;;;;;;;17.76;64.85;97450.59;2082054;28;20219;-63
2023/10/08 07:33:17;;;;;;;8.05;3.70;;;;;;;17.87;65.26;97459.63;2082024;28;20713;-63
2023/10/08 07:35:25;;;;;;;9.68;3.92;;;;;;;18.02;65.88;97461.34;2078450;28;20229;-63
2023/10/08 07:36:27;;;;;;;11.02;3.80;;;;;;;18.05;65.72;97470.88;2079285;28;20281;-63
2023/10/08 07:37:29;;;;;;;8.05;3.60;;;;;;;17.90;66.17;97473.50;2083741;28;20332;-63
2023/10/08 07:38:30;;;;;;;9.05;4.15;;;;;;;17.81;66.29;97466.13;2081993;28;20208;-63
2023/10/08 07:40:37;;;;;;;7.13;3.35;;;;;;;17.74;66.44;97459.53;2079724;28;20284;-63
2023/10/08 07:41:38;;;;;;;12.95;3.70;;;;;;;17.65;66.52;97457.44;2080229;28;20211;-63
2023/10/08 07:42:40;;;;;;;9.68;4.05;;;;;;;17.53;66.43;97456.41;2084723;28;20197;-62
2023/10/08 07:43:42;;;;;;;9.02;3.45;;;;;;;17.57;65.17;97450.84;2083711;28;20203;-63
2023/10/08 07:44:43;;;;;;;11.13;4.03;;;;;;;17.29;66.30;97449.84;2081959;28;20909;-62
2023/10/08 07:45:45;;;;;;;11.23;3.97;;;;;;;16.95;66.75;97443.91;2080898;28;20207;-64
2023/10/08 07:46:54;;;;;;;8.95;3.80;;;;;;;16.95;66.43;97453.59;2081426;28;20292;-63
2023/10/08 07:47:56;;;;;;;10.68;3.40;;;;;;;16.86;66.40;97456.72;2081104;28;20255;-63
2023/10/08 07:48:59;;;;;;;17.85;4.00;;;;;;;16.78;65.87;97454.53;2078443;28;20190;-63
2023/10/08 07:50:11;;;;;;;10.38;3.67;;;;;;;16.78;66.36;97454.53;2077507;28;20677;-63
2023/10/08 07:51:14;;;;;;;7.82;4.17;;;;;;;16.85;66.33;97449.75;1202345;28;10001589;-63
2023/10/08 07:52:16;;;;;;;10.32;3.70;;;;;;;16.88;66.86;97449.59;2073955;28;20230;-63
2023/10/08 07:53:18;;;;;;;11.18;3.60;;;;;;;16.93;67.14;97448.41;2073979;28;20197;-63
2023/10/08 07:54:22;;;;;;;16.08;3.80;;;;;;;16.93;67.65;97450.22;2069801;28;20193;-63
2023/10/08 07:55:24;;;;;;;14.38;3.75;;;;;;;16.95;67.57;97454.47;2071072;28;20205;-63
2023/10/08 07:56:26;;;;;;;8.00;3.40;;;;;;;16.95;67.55;97453.59;2067549;28;20205;-63
2023/10/08 08:00:18;;;;;;;12.63;3.55;;;;;;;17.05;66.21;97453.91;2089935;27;20735;-63
2023/10/08 08:03:16;;;;;;;14.48;3.78;;;;;;;17.34;66.97;97449.56;2099420;27;20544;-64
2023/10/08 08:04:23;;;;;;;8.93;3.45;;;;;;;17.28;66.55;97449.91;2094939;28;20195;-64
2023/10/08 08:05:25;;;;;;;14.48;3.90;;;;;;;17.29;66.81;97456.91;2084838;28;20748;-64
2023/10/08 08:06:27;;;;;;;11.10;4.55;;;;;;;17.81;66.16;97446.81;2083394;28;20778;-64
2023/10/08 08:07:29;;;;;;;15.52;5.68;;;;;;;18.58;64.69;97447.28;2082168;28;20246;-65
2023/10/08 08:08:38;;;;;;;13.63;4.50;;;;;;;19.11;62.64;97449.19;2081057;28;20220;-64
2023/10/08 08:09:39;;;;;;;12.63;4.28;;;;;;;19.91;60.35;97454.38;2075062;28;20236;-64
2023/10/08 08:10:43;;;;;;;11.40;4.22;;;;;;;20.14;60.12;97454.59;2072623;28;20652;-64
2023/10/08 08:11:48;;;;;;;11.13;4.18;;;;;;;20.53;58.67;97447.34;2074151;28;20557;-65
2023/10/08 08:12:54;;;;;;;10.95;4.30;;;;;;;20.86;57.90;97457.34;2073422;28;20198;-64
2023/10/08 08:13:56;;;;;;;13.35;4.45;;;;;;;21.31;56.38;97455.84;2072194;28;20229;-64
2023/10/08 08:14:58;;;;;;;13.77;4.30;;;;;;;21.90;55.24;97451.38;2072013;28;20249;-62
2023/10/08 08:16:09;;;;;;;20.95;3.35;;;;;;;21.98;54.05;97451.63;2073390;28;20296;-62
2023/10/08 08:17:13;;;;;;;11.63;4.00;;;;;;;22.02;53.99;97455.75;2070816;28;20657;-63
2023/10/08 08:18:22;;;;;;;7.30;3.78;;;;;;;21.98;54.00;97454.28;2075048;28;20247;-62
2023/10/08 08:19:24;;;;;;;18.25;4.40;;;;;;;22.75;52.67;97458.81;2073802;28;20721;-62
2023/10/08 08:20:38;;;;;;;10.65;4.28;;;;;;;23.36;51.46;97454.72;2074353;28;20678;-63
2023/10/08 08:21:44;;;;;;;11.82;4.60;;;;;;;23.60;51.48;97467.81;2074407;28;20227;-64
2023/10/08 08:22:49;;;;;;;10.82;4.57;;;;;;;23.86;50.11;97467.41;2074450;28;20205;-64
2023/10/08 08:23:52;;;;;;;10.65;3.83;;;;;;;24.40;48.79;97467.22;2074273;28;20526;-64
2023/10/08 08:24:59;;;;;;;10.27;3.90;;;;;;;24.57;48.57;97473.72;2072971;28;20283;-63
2023/10/08 08:26:11;;;;;;;13.63;3.88;;;;;;;24.65;48.45;97473.09;2074045;28;20205;-64
2023/10/08 08:27:23;;;;;;;14.90;4.20;;;;;;;24.37;48.25;97480.84;2070704;28;20205;-64
2023/10/08 08:28:25;;;;;;;14.63;3.90;;;;;;;24.82;48.58;97488.44;2071072;28;20204;-64
2023/10/08 08:29:33;;;;;;;11.20;4.30;;;;;;;24.82;48.69;97488.44;2074599;28;21168;-64
2023/10/08 08:30:36;;;;;;;11.60;3.87;;;;;;;25.56;47.75;97489.78;2071613;28;20838;-64
2023/10/08 08:31:38;;;;;;;9.33;4.20;;;;;;;25.59;47.73;97494.81;2072214;28;20424;-64
2023/10/08 08:32:40;;;;;;;14.00;3.80;;;;;;;24.27;49.94;97500.31;2074312;28;20422;-64
2023/10/08 08:33:56;;;;;;;9.88;4.00;;;;;;;23.25;51.91;97497.41;2070606;28;20661;-64
2023/10/08 08:34:58;;;;;;;12.95;4.15;;;;;;;23.02;52.88;97496.63;2073361;28;20218;-64
2023/10/08 08:36:01;;;;;;;6.63;3.88;;;;;;;22.58;53.68;97499.28;2075080;28;20235;-64
2023/10/08 08:37:02;;;;;;;12.25;4.65;;;;;;;23.34;52.03;97504.66;2072398;28;20642;-64
2023/10/08 08:38:05;;;;;;;8.70;3.70;;;;;;;23.53;51.63;97513.75;2072295;28;20284;-64
2023/10/08 08:39:08;;;;;;;12.43;4.75;;;;;;;22.13;54.48;97516.03;2073424;28;20236;-64
2023/10/08 08:40:19;;;;;;;10.60;4.30;;;;;;;22.28;54.87;97521.97;2076873;28;20189;-63
2023/10/08 08:41:22;;;;;;;10.43;3.67;;;;;;;22.70;53.91;97521.38;2076839;28;20193;-64
2023/10/08 08:42:26;;;;;;;12.48;4.00;;;;;;;22.93;52.73;97520.38;2074423;28;20205;-64
2023/10/08 08:43:33;;;;;;;9.65;3.92;;;;;;;23.32;51.65;97530.56;2065350;28;20252;-63
2023/10/08 08:44:47;;;;;;;11.48;3.20;;;;;;;23.85;50.56;97531.53;2062604;28;20233;-63
2023/10/08 08:45:49;;;;;;;13.60;3.78;;;;;;;24.56;48.84;97538.81;2074627;28;20193;-64
2023/10/08 08:46:51;;;;;;;8.48;3.53;;;;;;;25.06;47.39;97527.28;2075053;28;20205;-63
2023/10/08 08:47:53;;;;;;;7.55;3.58;;;;;;;25.45;46.91;97534.53;2076844;28;20201;-64
2023/10/08 08:48:55;;;;;;;13.60;4.03;;;;;;;25.66;45.35;97511.16;2076004;28;20550;-64
2023/10/08 08:50:07;;;;;;;8.80;3.95;;;;;;;25.98;45.15;97530.50;2074000;28;20228;-64
2023/10/08 08:51:09;;;;;;;12.05;4.15;;;;;;;25.98;45.35;97534.03;2074334;28;20198;-64
2023/10/08 08:52:12;;;;;;;18.47;4.27;;;;;;;25.10;46.19;97529.53;2075278;28;20288;-64
2023/10/08 08:53:14;;;;;;;6.67;3.33;;;;;;;25.27;45.75;97530.69;2074269;28;20418;-64
2023/10/08 08:54:16;;;;;;;18.57;4.10;;;;;;;24.62;45.79;97531.09;2074076;28;20430;-64
2023/10/08 08:55:18;;;;;;;9.60;4.30;;;;;;;24.55;46.13;97532.59;2075618;28;20513;-64
2023/10/08 08:56:21;;;;;;;10.57;4.00;;;;;;;24.19;46.99;97531.31;2074623;28;20993;-64
2023/10/08 08:57:23;;;;;;;7.45;3.25;;;;;;;23.79;47.78;97535.56;2075401;28;20441;-64
2023/10/08 08:58:25;;;;;;;8.05;3.65;;;;;;;24.04;46.98;97530.84;2074818;28;20255;-64
2023/10/08 08:59:29;;;;;;;9.90;3.55;;;;;;;23.41;48.00;97527.13;2073319;28;20228;-63
2023/10/08 09:00:32;;;;;;;11.77;3.85;;;;;;;23.01;48.57;97519.75;2076456;28;20204;-64
2023/10/08 09:01:35;;;;;;;11.75;4.50;;;;;;;23.21;48.30;97523.47;2074101;28;20637;-64
2023/10/08 09:02:38;;;;;;;13.02;4.43;;;;;;;23.06;49.14;97514.03;2074411;28;20241;-64
2023/10/08 09:03:40;;;;;;;12.85;5.38;;;;;;;22.99;49.12;97519.88;2074823;28;20205;-64
2023/10/08 09:04:41;;;;;;;11.20;4.60;;;;;;;22.92;49.34;97521.34;2070343;28;20225;-64
2023/10/08 09:05:49;;;;;;;9.40;3.50;;;;;;;22.94;49.09;97513.22;2072427;28;20630;-64
2023/10/08 09:06:53;;;;;;;13.70;4.05;;;;;;;22.76;49.98;97516.41;2076016;28;20209;-63
2023/10/08 09:08:06;;;;;;;9.32;3.80;;;;;;;23.04;49.42;97516.00;2074149;28;20221;-65
2023/10/08 09:09:21;;;;;;;9.63;4.30;;;;;;;22.95;49.47;97520.25;2072864;28;20205;-65
2023/10/08 09:10:29;;;;;;;7.63;3.53;;;;;;;22.83;49.00;97512.28;2057910;28;20273;-65
2023/10/08 09:11:30;;;;;;;10.63;4.25;;;;;;;22.97;48.99;97515.66;2056688;28;20225;-66
2023/10/08 09:12:33;;;;;;;9.05;3.47;;;;;;;23.15;49.30;97527.47;2078267;28;20641;-65
2023/10/08 09:13:36;;;;;;;8.63;3.50;;;;;;;23.34;48.57;97517.97;2083844;28;20224;-66
2023/10/08 09:14:38;;;;;;;9.75;4.18;;;;;;;24.58;46.29;97528.81;2072026;28;20225;-65
2023/10/08 09:15:39;;;;;;;10.32;4.55;;;;;;;25.20;45.02;97515.34;2068352;28;20732;-65
2023/10/08 09:16:41;;;;;;;8.68;3.92;;;;;;;25.83;44.22;97520.28;2069240;28;20281;-65
2023/10/08 09:17:43;;;;;;;12.32;4.05;;;;;;;25.57;44.31;97523.56;2069697;28;20586;-65
2023/10/08 09:18:52;;;;;;;9.40;3.92;;;;;;;25.50;44.30;97522.41;2070837;28;20318;-65
2023/10/08 09:19:54;;;;;;;9.63;3.83;;;;;;;26.13;43.75;97522.91;2076668;28;20225;-65
2023/10/08 09:20:56;;;;;;;8.68;4.13;;;;;;;26.24;43.22;97523.59;2068661;28;20301;-65
2023/10/08 09:22:05;;;;;;;6.05;3.40;;;;;;;26.15;43.83;97523.63;2068421;28;20288;-65
2023/10/08 09:23:11;;;;;;;8.40;3.92;;;;;;;26.00;43.63;97518.66;2068639;28;20260;-65
2023/10/08 09:24:19;;;;;;;10.52;4.00;;;;;;;25.80;44.11;97523.25;2069143;28;20194;-65
2023/10/08 09:25:24;;;;;;;7.25;3.88;;;;;;;26.22;43.04;97525.56;2068005;28;20240;-65
2023/10/08 09:26:29;;;;;;;7.80;4.10;;;;;;;25.69;44.31;97520.72;2069895;28;20209;-65
2023/10/08 09:27:30;;;;;;;12.32;4.07;;;;;;;25.69;44.20;97528.75;2067546;28;20752;-65
2023/10/08 09:28:38;;;;;;;8.75;3.83;;;;;;;25.21;44.57;97522.38;2066633;28;20202;-65
2023/10/08 09:29:41;;;;;;;10.35;4.18;;;;;;;25.47;44.35;97527.19;2067003;28;20229;-65
2023/10/08 09:30:44;;;;;;;6.65;3.17;;;;;;;25.16;45.05;97528.13;2070384;28;20198;-65
2023/10/08 09:31:55;;;;;;;8.60;3.60;;;;;;;24.51;46.56;97525.84;2070025;28;20259;-65
2023/10/08 09:32:57;;;;;;;16.08;4.20;;;;;;;24.40;47.06;97524.09;2068653;28;20198;-65
2023/10/08 09:33:59;;;;;;;10.48;2.90;;;;;;;24.53;47.08;97533.72;2066980;28;20186;-65
2023/10/08 09:35:01;;;;;;;13.98;4.60;;;;;;;23.84;47.11;97524.50;2068964;28;20273;-65
2023/10/08 09:36:05;;;;;;;9.73;4.25;;;;;;;23.56;47.90;97526.84;2068416;28;20238;-65
2023/10/08 09:37:09;;;;;;;9.30;3.72;;;;;;;22.97;49.18;97524.47;2068455;28;20201;-64
2023/10/08 09:38:15;;;;;;;8.57;3.75;;;;;;;22.77;49.29;97519.94;2067529;28;20240;-64
2023/10/08 09:39:23;;;;;;;18.85;4.90;;;;;;;22.78;49.45;97525.13;2065179;28;20206;-65
2023/10/08 09:40:25;;;;;;;13.07;4.60;;;;;;;22.47;49.54;97513.41;2068511;28;20231;-65
2023/10/08 09:41:31;;;;;;;18.20;4.40;;;;;;;22.25;49.65;97515.09;2065690;28;20222;-65
2023/10/08 09:42:33;;;;;;;8.82;4.30;;;;;;;22.00;49.92;97513.50;2066730;28;20277;-64
2023/10/08 09:43:36;;;;;;;9.30;3.72;;;;;;;21.91;50.71;97512.41;2067297;28;20299;-64
2023/10/08 09:44:38;;;;;;;18.70;3.90;;;;;;;21.72;51.07;97512.13;2067247;28;20265;-65
2023/10/08 09:45:43;;;;;;;8.95;3.80;;;;;;;21.77;50.97;97509.97;2068329;28;20212;-64
2023/10/08 09:46:52;;;;;;;12.23;4.22;;;;;;;21.89;51.19;97509.03;2067750;28;20194;-64
2023/10/08 09:47:55;;;;;;;12.68;4.60;;;;;;;21.81;50.97;97504.31;2067383;28;20260;-65
2023/10/08 09:48:59;;;;;;;13.48;4.25;;;;;;;22.12;50.61;97501.91;2067243;28;20194;-64
2023/10/08 09:50:07;;;;;;;10.00;3.80;;;;;;;22.19;50.42;97510.25;2068452;28;20221;-64
2023/10/08 09:51:10;;;;;;;8.13;3.88;;;;;;;22.17;50.22;97499.75;2068852;28;20213;-65
2023/10/08 09:52:15;;;;;;;19.42;4.40;;;;;;;22.07;50.38;97505.88;2070257;28;20205;-64
2023/10/08 09:53:22;;;;;;;11.43;3.92;;;;;;;21.94;50.93;97492.69;2068114;28;20251;-64
2023/10/08 09:54:37;;;;;;;16.65;4.20;;;;;;;21.88;51.25;97498.50;2066738;28;20221;-64
2023/10/08 09:55:45;;;;;;;12.52;4.65;;;;;;;22.10;51.48;97500.34;2068441;28;20193;-64
2023/10/08 09:56:47;;;;;;;9.25;3.95;;;;;;;22.35;51.15;97504.56;2068439;28;20193;-64
2023/10/08 09:57:51;;;;;;;9.27;3.80;;;;;;;22.14;51.00;97485.81;2067088;28;20224;-65
2023/10/08 09:58:53;;;;;;;11.15;4.10;;;;;;;22.17;51.67;97501.56;2068238;28;20209;-64
2023/10/08 09:59:57;;;;;;;12.35;5.18;;;;;;;22.25;51.35;97503.63;2068087;28;20225;-64
2023/10/08 10:00:59;;;;;;;10.52;4.60;;;;;;;22.11;51.39;97499.38;2068828;28;20198;-64
2023/10/08 10:02:03;;;;;;;13.10;4.30;;;;;;;22.32;50.93;97507.47;2069077;28;20293;-65
2023/10/08 10:03:04;;;;;;;14.55;5.28;;;;;;;22.23;51.03;97501.06;2069623;28;20242;-65
2023/10/08 10:04:10;;;;;;;16.92;4.82;;;;;;;22.11;51.77;97502.88;2068121;28;20226;-64
2023/10/08 10:05:20;;;;;;;20.70;4.20;;;;;;;22.14;51.75;97507.97;2067946;28;20202;-64
2023/10/08 10:06:22;;;;;;;11.85;4.70;;;;;;;21.99;52.18;97514.47;2068308;28;20194;-64
2023/10/08 10:07:25;;;;;;;15.57;4.43;;;;;;;22.01;51.63;97507.22;2067503;28;20213;-64
2023/10/08 10:08:29;;;;;;;20.88;4.38;;;;;;;22.17;51.49;97504.22;2065716;28;20191;-64
2023/10/08 10:09:32;;;;;;;13.40;3.65;;;;;;;22.00;51.37;97513.50;2066072;28;20229;-64
2023/10/08 10:10:38;;;;;;;9.25;3.78;;;;;;;21.95;51.69;97508.56;2068014;28;20217;-64
2023/10/08 10:11:39;;;;;;;11.98;4.45;;;;;;;22.06;51.62;97501.56;2069367;28;20225;-64
2023/10/08 10:12:43;;;;;;;12.07;4.93;;;;;;;22.33;51.67;97515.34;2067022;28;20200;-65
2023/10/08 10:13:49;;;;;;;21.98;4.65;;;;;;;22.62;51.53;97514.84;2067898;28;20209;-64
2023/10/08 10:14:55;;;;;;;16.95;4.80;;;;;;;22.90;50.34;97512.63;2067213;28;20686;-64
2023/10/08 10:15:58;;;;;;;15.82;4.00;;;;;;;23.19;49.74;97516.59;2066871;28;20201;-64
2023/10/08 10:17:28;;;;;;;11.55;4.25;;;;;;;23.06;50.50;97516.69;2068989;28;20234;-64
2023/10/08 10:18:48;;;;;;;9.43;4.30;;;;;;;23.02;50.26;97509.94;2068015;28;20661;-65
2023/10/08 10:19:53;;;;;;;17.52;4.85;;;;;;;23.42;49.93;97520.00;2068819;28;20230;-64
2023/10/08 10:21:00;;;;;;;9.20;4.25;;;;;;;23.89;49.02;97524.97;2069490;28;20260;-64
2023/10/08 10:22:03;;;;;;;10.18;4.55;;;;;;;23.74;48.53;97522.59;2066342;28;20202;-64
2023/10/08 10:23:37;;;;;;;25.20;4.50;;;;;;;24.44;47.45;97527.34;2065983;28;20322;-65
2023/10/08 10:24:41;;;;;;;12.63;3.92;;;;;;;24.73;46.66;97527.47;2068436;28;20224;-64
2023/10/08 10:25:44;;;;;;;14.85;4.50;;;;;;;24.41;47.97;97531.13;2065167;28;20253;-65
2023/10/08 10:26:50;;;;;;;14.70;4.63;;;;;;;24.52;47.68;97530.22;2067907;28;20279;-65
2023/10/08 10:27:55;;;;;;;17.75;4.80;;;;;;;24.07;46.28;97528.72;2067732;28;20232;-64
2023/10/08 10:29:14;;;;;;;13.88;4.40;;;;;;;24.31;46.26;97532.09;2066515;28;20198;-64
2023/10/08 10:30:18;;;;;;;18.40;4.82;;;;;;;24.54;46.31;97528.22;2076434;28;20213;-64
2023/10/08 10:31:24;;;;;;;13.20;4.80;;;;;;;24.95;44.99;97528.25;2076399;28;20584;-65
2023/10/08 10:32:26;;;;;;;13.90;4.43;;;;;;;25.08;45.07;97523.50;2076589;28;20280;-64
2023/10/08 10:33:32;;;;;;;12.35;4.35;;;;;;;25.15;45.33;97523.78;2075018;28;20190;-65
2023/10/08 10:34:38;;;;;;;9.32;3.97;;;;;;;25.34;45.24;97522.94;2075659;28;20260;-64
2023/10/08 10:35:43;;;;;;;12.80;4.30;;;;;;;25.31;44.93;97520.56;2077536;28;20280;-65
2023/10/08 10:36:55;;;;;;;16.05;4.63;;;;;;;25.26;43.69;97526.31;2075978;28;20813;-65
2023/10/08 10:38:03;;;;;;;13.57;4.65;;;;;;;25.46;43.29;97522.81;2074425;28;20288;-65
2023/10/08 10:39:46;;;;;;;12.35;4.85;;;;;;;25.46;42.79;97517.47;2075050;28;20321;-65
2023/10/08 10:40:41;;;;;;;20.38;6.05;;;;;;;24.94;42.81;97537.25;2066897;28;20206;-64
2023/10/08 10:41:48;;;;;;;16.52;4.00;;;;;;;24.89;43.80;97531.47;2068859;28;20197;-65
2023/10/08 10:42:53;;;;;;;21.98;5.03;;;;;;;24.70;43.58;97525.09;2068007;28;20669;-65
2023/10/08 10:43:55;;;;;;;15.10;4.75;;;;;;;24.37;43.27;97531.56;2066886;28;20655;-65
2023/10/08 10:44:58;;;;;;;16.73;4.28;;;;;;;24.59;44.11;97534.03;2066765;28;20704;-64
2023/10/08 10:46:29;;;;;;;14.25;4.80;;;;;;;24.84;43.50;97526.53;2068417;28;20244;-65
2023/10/08 10:48:25;;;;;;;25.13;4.90;;;;;;;24.63;42.87;97531.91;2067764;28;20664;-65
2023/10/08 10:49:36;;;;;;;14.98;4.40;;;;;;;24.64;42.88;97527.44;2067584;28;20229;-65
2023/10/08 10:50:48;;;;;;;14.80;4.40;;;;;;;24.36;43.37;97521.84;2067772;28;20197;-65
2023/10/08 10:51:57;;;;;;;24.60;4.97;;;;;;;24.41;42.81;97517.78;2068288;28;20278;-65
2023/10/08 10:53:09;;;;;;;22.73;4.57;;;;;;;24.36;42.97;97524.53;2067479;28;20272;-65
2023/10/08 10:54:10;;;;;;;24.25;5.68;;;;;;;24.43;43.52;97529.19;2067339;28;20790;-65
2023/10/08 10:56:20;;;;;;;23.90;5.10;;;;;;;23.95;44.47;97524.47;2067967;28;20234;-64
2023/10/08 10:57:34;;;;;;;16.90;4.45;;;;;;;24.04;43.81;97521.00;2067241;28;20191;-65
2023/10/08 10:58:39;;;;;;;19.73;4.90;;;;;;;23.92;43.78;97522.03;2067403;28;20205;-65
2023/10/08 10:59:52;;;;;;;21.77;5.75;;;;;;;24.04;43.83;97517.50;2067417;28;20245;-64
2023/10/08 11:01:07;;;;;;;24.60;4.75;;;;;;;24.04;43.75;97521.00;2066923;28;20638;-65
2023/10/08 11:02:20;;;;;;;21.55;4.57;;;;;;;24.01;43.56;97525.75;2068154;28;20855;-65
2023/10/08 11:03:27;;;;;;;15.63;5.22;;;;;;;23.75;44.56;97526.97;2067912;28;20325;-64
2023/10/08 11:04:30;;;;;;;22.63;4.82;;;;;;;23.90;44.42;97518.66;2067108;28;20233;-65
2023/10/08 11:05:37;;;;;;;19.27;4.97;;;;;;;24.09;43.87;97521.44;2068372;28;20226;-65
2023/10/08 11:06:39;;;;;;;22.50;6.20;;;;;;;23.80;44.91;97524.75;2065627;28;20324;-65
2023/10/08 11:07:40;;;;;;;16.55;4.70;;;;;;;24.03;44.84;97526.47;2069437;28;20328;-65
2023/10/08 11:08:46;;;;;;;15.40;5.15;;;;;;;24.23;43.97;97520.25;2064978;28;20202;-65
2023/10/08 11:09:48;;;;;;;15.25;4.50;;;;;;;24.02;44.15;97520.28;2068600;28;20217;-65
2023/10/08 11:10:51;;;;;;;18.10;5.03;;;;;;;24.23;44.16;97517.59;2067701;28;20288;-65
2023/10/08 11:11:54;;;;;;;21.40;5.18;;;;;;;24.27;44.33;97521.66;2067589;28;20231;-65
2023/10/08 11:12:58;;;;;;;15.25;5.00;;;;;;;24.22;44.05;97518.56;2068019;28;20702;-65
2023/10/08 11:14:00;;;;;;;17.70;5.25;;;;;;;24.37;44.03;97511.03;2068051;28;20755;-65
2023/10/08 11:15:05;;;;;;;21.80;4.55;;;;;;;24.11;43.96;97524.84;2067925;28;20242;-65
2023/10/08 11:16:13;;;;;;;16.40;4.55;;;;;;;24.02;44.05;97517.59;2068035;28;20251;-65
2023/10/08 11:17:17;;;;;;;13.85;4.57;;;;;;;24.07;44.13;97517.22;2077301;28;20197;-65
2023/10/08 11:18:22;;;;;;;22.08;4.97;;;;;;;24.10;44.36;97519.66;2070457;28;20735;-65
2023/10/08 11:19:24;;;;;;;20.83;4.50;;;;;;;23.84;44.50;97513.84;2065632;28;20284;-65
2023/10/08 11:20:27;;;;;;;14.98;5.00;;;;;;;24.01;44.22;97515.94;2071148;28;20290;-65
2023/10/08 11:21:33;;;;;;;13.05;4.88;;;;;;;23.94;44.02;97520.09;2070632;28;20200;-65
2023/10/08 11:22:44;;;;;;;22.02;5.28;;;;;;;23.82;44.51;97519.31;2066065;28;20229;-64
2023/10/08 11:23:59;;;;;;;16.65;5.05;;;;;;;23.68;43.95;97520.47;2068159;28;20202;-65
2023/10/08 11:25:05;;;;;;;23.20;5.07;;;;;;;23.50;44.89;97519.34;2067653;28;20225;-65
2023/10/08 11:26:07;;;;;;;12.20;4.38;;;;;;;23.67;44.56;97518.78;2064018;28;20686;-65
2023/10/08 11:27:17;;;;;;;17.95;4.80;;;;;;;23.54;45.05;97520.78;2067916;28;20201;-65
2023/10/08 11:28:19;;;;;;;20.23;5.07;;;;;;;23.31;44.93;97520.88;2067307;28;20209;-65
2023/10/08 11:29:25;;;;;;;21.42;4.93;;;;;;;23.56;44.59;97514.34;2067910;28;20198;-64
2023/10/08 11:30:30;;;;;;;20.63;4.90;;;;;;;23.57;44.98;97520.53;2068835;28;20198;-65
2023/10/08 11:31:34;;;;;;;16.55;5.35;;;;;;;23.75;44.51;97510.13;2067447;28;20202;-65
2023/10/08 11:32:38;;;;;;;25.27;5.00;;;;;;;23.73;44.50;97514.72;2068293;28;20314;-65
2023/10/08 11:33:41;;;;;;;12.35;4.80;;;;;;;23.76;44.43;97511.81;2074660;28;20224;-65
2023/10/08 11:34:49;;;;;;;12.38;4.82;;;;;;;24.23;43.88;97514.09;2072581;28;20240;-65
2023/10/08 11:35:58;;;;;;;15.82;5.50;;;;;;;24.65;43.37;97511.31;2067415;28;20574;-65
2023/10/08 11:37:02;;;;;;;16.63;5.03;;;;;;;25.27;42.23;97506.63;2067983;28;20208;-65
2023/10/08 11:38:04;;;;;;;23.65;5.55;;;;;;;25.17;42.47;97507.63;2064714;28;20194;-67
2023/10/08 11:39:21;;;;;;;15.35;4.65;;;;;;;25.43;42.08;97506.09;2069978;28;20202;-65
2023/10/08 11:40:48;;;;;;;15.52;5.13;;;;;;;25.67;41.42;97496.78;2069951;28;20530;-65
2023/10/08 11:42:03;;;;;;;30.17;5.55;;;;;;;25.80;40.94;97504.53;2068091;28;20628;-65
2023/10/08 11:43:06;;;;;;;18.27;5.05;;;;;;;26.19;40.94;97496.38;2066600;28;20228;-65
2023/10/08 11:44:13;;;;;;;17.52;4.10;;;;;;;26.62;40.33;97495.94;2065410;28;20285;-65
2023/10/08 11:45:17;;;;;;;18.40;5.00;;;;;;;26.89;39.50;97497.78;2066510;28;20190;-65
2023/10/08 11:46:21;;;;;;;22.50;5.40;;;;;;;26.97;39.67;97492.50;2066359;28;20202;-64
2023/10/08 11:47:24;;;;;;;22.23;5.43;;;;;;;27.41;39.01;97497.13;2066825;28;20545;-66
2023/10/08 11:48:28;;;;;;;26.05;5.53;;;;;;;27.79;37.83;97492.41;2065808;28;20285;-65
2023/10/08 11:49:36;;;;;;;19.90;5.43;;;;;;;27.25;38.10;97489.78;2066806;28;20221;-66
2023/10/08 11:50:38;;;;;;;19.17;5.40;;;;;;;27.60;37.67;97484.56;2066625;28;20205;-65
2023/10/08 11:51:40;;;;;;;16.10;4.70;;;;;;;27.70;37.51;97490.66;2066986;28;20285;-65
2023/10/08 11:52:42;;;;;;;15.43;5.47;;;;;;;28.04;37.48;97487.25;2064977;28;20277;-66
2023/10/08 11:53:44;;;;;;;23.05;5.55;;;;;;;28.14;37.21;97490.66;2066723;28;20708;-65
2023/10/08 11:54:48;;;;;;;22.58;5.35;;;;;;;27.36;37.59;97488.69;2066068;28;20214;-65
2023/10/08 11:55:54;;;;;;;20.58;5.13;;;;;;;26.77;38.53;97477.56;2066534;28;20190;-65
2023/10/08 11:57:02;;;;;;;27.60;5.80;;;;;;;27.11;37.85;97477.75;2067326;28;20202;-65